Time;durP1;ratioP1;P1;durP2;ratioP2;P2;SDS_P1;SDS_P2;PMS_P1;PMS_P2;Temp;Humidity;BMP_temperature;BMP_pressure;BME280_temperature;BME280_humidity;BME280_pressure;Samples;Min_cycle;Max_cycle;Signal;HPM_P1;HPM_P2
2023/01/06 00:01:00;;;;;;;2.97;1.92;;;23.40;47.60;;;;;;6058526;28;81723;-64
2023/01/06 00:04:02;;;;;;;2.35;1.60;;;23.40;47.70;;;;;;6057466;28;83316;-66
2023/01/06 00:07:02;;;;;;;3.53;2.22;;;23.40;47.80;;;;;;6051066;28;85312;-66
2023/01/06 00:10:03;;;;;;;2.78;1.90;;;23.30;47.70;;;;;;6073186;28;81450;-64
2023/01/06 00:13:03;;;;;;;4.10;2.08;;;23.40;47.90;;;;;;6079253;28;81956;-64
2023/01/06 00:16:04;;;;;;;3.15;2.13;;;23.40;47.90;;;;;;6062486;28;82126;-69
2023/01/06 00:19:04;;;;;;;4.25;1.90;;;23.30;47.50;;;;;;6076039;28;84153;-65
2023/01/06 00:22:05;;;;;;;2.75;1.92;;;23.40;47.70;;;;;;6074709;28;80708;-64
2023/01/06 00:25:05;;;;;;;3.55;1.90;;;23.30;47.40;;;;;;6062546;28;81222;-66
2023/01/06 00:28:06;;;;;;;8.38;1.70;;;23.30;47.50;;;;;;6065118;28;81359;-68
2023/01/06 00:31:06;;;;;;;3.08;1.77;;;23.30;47.40;;;;;;6065224;28;80766;-67
2023/01/06 00:34:07;;;;;;;2.15;1.75;;;23.30;47.50;;;;;;6081126;28;83454;-64
2023/01/06 00:37:07;;;;;;;1.85;1.40;;;23.30;47.60;;;;;;6072417;28;80299;-65
2023/01/06 00:40:08;;;;;;;2.40;1.80;;;23.30;47.70;;;;;;6077318;28;80723;-65
2023/01/06 00:43:11;;;;;;;3.25;1.92;;;23.30;47.70;;;;;;6066198;28;83591;-65
2023/01/06 00:46:12;;;;;;;4.57;2.10;;;23.30;47.80;;;;;;6065177;28;80601;-67
2023/01/06 00:49:14;;;;;;;2.95;1.90;;;23.30;47.40;;;;;;6066802;28;80355;-64
2023/01/06 00:52:14;;;;;;;3.90;2.03;;;23.30;47.60;;;;;;6081506;28;80463;-62
2023/01/06 00:55:15;;;;;;;2.20;1.80;;;23.30;47.40;;;;;;6081176;28;80414;-62
2023/01/06 00:58:16;;;;;;;2.95;1.58;;;23.30;47.10;;;;;;6083521;28;82490;-62
2023/01/06 01:01:16;;;;;;;2.42;1.65;;;23.30;47.20;;;;;;6082835;28;83239;-65
2023/01/06 01:04:19;;;;;;;2.20;1.60;;;23.30;46.80;;;;;;6081670;28;80550;-65
2023/01/06 01:07:21;;;;;;;2.88;1.80;;;23.30;46.90;;;;;;6100969;28;83819;-63
2023/01/06 01:10:22;;;;;;;3.50;2.15;;;23.30;46.90;;;;;;6088493;28;81184;-64
2023/01/06 01:13:22;;;;;;;2.22;1.70;;;23.20;46.80;;;;;;6086738;28;81850;-64
2023/01/06 01:16:23;;;;;;;3.15;1.83;;;23.30;46.70;;;;;;6083114;28;80581;-64
2023/01/06 01:19:23;;;;;;;2.88;1.67;;;23.20;46.60;;;;;;6084329;28;81529;-64
2023/01/06 01:22:24;;;;;;;1.85;1.38;;;23.20;46.60;;;;;;6090133;28;80457;-64
2023/01/06 01:25:24;;;;;;;3.42;1.63;;;23.20;46.50;;;;;;6083836;28;80297;-64
2023/01/06 01:28:25;;;;;;;3.60;2.00;;;23.20;46.50;;;;;;6075109;28;83591;-63
2023/01/06 01:31:26;;;;;;;1.50;1.30;;;23.20;46.30;;;;;;6073864;28;80195;-63
2023/01/06 01:34:26;;;;;;;2.97;1.33;;;23.20;46.40;;;;;;6078678;28;83346;-63
2023/01/06 01:37:27;;;;;;;1.98;1.35;;;23.20;46.40;;;;;;6084552;28;83107;-63
2023/01/06 01:40:27;;;;;;;2.22;1.55;;;23.20;46.10;;;;;;6060044;28;80875;-63
2023/01/06 01:43:28;;;;;;;2.92;1.50;;;23.20;46.20;;;;;;6073760;28;83410;-63
2023/01/06 01:46:29;;;;;;;2.53;1.50;;;23.20;46.20;;;;;;6059890;28;81070;-62
2023/01/06 01:49:31;;;;;;;3.63;1.50;;;23.20;46.00;;;;;;6082617;28;83052;-64
2023/01/06 01:52:32;;;;;;;2.45;1.50;;;23.20;46.00;;;;;;6059787;28;80912;-64
2023/01/06 01:55:33;;;;;;;2.67;1.50;;;23.20;45.70;;;;;;6073693;28;83996;-65
2023/01/06 01:58:33;;;;;;;2.70;1.52;;;23.20;46.30;;;;;;6057966;28;80869;-67
2023/01/06 02:01:34;;;;;;;1.90;1.50;;;23.20;45.60;;;;;;6058779;28;80356;-69
2023/01/06 02:04:35;;;;;;;1.90;1.38;;;23.20;45.60;;;;;;6074263;28;81264;-69
2023/01/06 02:07:35;;;;;;;2.10;1.55;;;23.20;45.70;;;;;;6074257;28;83770;-63
2023/01/06 02:10:36;;;;;;;2.60;1.30;;;23.20;45.60;;;;;;6081174;28;81717;-64
2023/01/06 02:13:37;;;;;;;2.08;1.48;;;23.10;45.50;;;;;;6116652;28;81605;-63
2023/01/06 02:16:38;;;;;;;2.17;1.20;;;23.10;45.50;;;;;;6093910;28;80454;-63
2023/01/06 02:19:39;;;;;;;2.15;1.38;;;23.20;45.50;;;;;;6082387;28;81456;-63
2023/01/06 02:22:39;;;;;;;3.00;1.40;;;23.20;45.40;;;;;;6068545;28;83136;-63
2023/01/06 02:25:40;;;;;;;2.08;1.40;;;23.10;45.30;;;;;;6066803;28;81525;-62
2023/01/06 02:28:41;;;;;;;1.98;1.33;;;23.10;45.30;;;;;;6070077;28;83684;-63
2023/01/06 02:31:42;;;;;;;1.83;1.20;;;23.10;45.10;;;;;;6075953;28;83956;-62
2023/01/06 02:34:43;;;;;;;1.60;1.30;;;23.10;45.20;;;;;;6078128;28;83378;-62
2023/01/06 02:37:44;;;;;;;1.90;1.42;;;23.10;45.30;;;;;;6068866;28;81008;-64
2023/01/06 02:40:46;;;;;;;2.15;1.20;;;23.10;45.30;;;;;;6101803;28;85050;-63
2023/01/06 02:43:47;;;;;;;2.33;1.42;;;23.10;45.20;;;;;;6097378;28;83401;-59
2023/01/06 02:46:48;;;;;;;1.75;1.25;;;23.10;45.10;;;;;;6107892;28;83606;-59
2023/01/06 02:49:49;;;;;;;1.85;1.30;;;23.10;45.30;;;;;;6103855;28;83532;-60
2023/01/06 02:52:50;;;;;;;1.58;1.30;;;23.10;45.20;;;;;;6101905;28;83074;-59
2023/01/06 02:55:51;;;;;;;2.03;1.45;;;23.10;45.10;;;;;;6102971;28;81090;-59
2023/01/06 02:58:53;;;;;;;2.35;1.38;;;23.10;45.10;;;;;;6107362;28;82941;-60
2023/01/06 03:01:53;;;;;;;2.55;1.48;;;23.10;45.00;;;;;;6109040;28;83469;-62
2023/01/06 03:04:54;;;;;;;2.92;1.38;;;23.10;45.10;;;;;;6103237;28;83655;-63
2023/01/06 03:07:55;;;;;;;1.25;1.02;;;23.10;45.10;;;;;;6104372;28;83619;-64
2023/01/06 03:10:57;;;;;;;2.15;1.75;;;23.10;45.00;;;;;;6103440;28;83427;-64
2023/01/06 03:13:58;;;;;;;2.15;1.27;;;23.10;45.10;;;;;;6117854;28;83254;-63
2023/01/06 03:16:59;;;;;;;2.33;1.23;;;23.10;44.90;;;;;;6103087;28;83190;-63
2023/01/06 03:20:04;;;;;;;2.42;1.40;;;23.10;44.90;;;;;;6115841;28;80884;-62
2023/01/06 03:23:06;;;;;;;2.00;1.20;;;23.10;45.00;;;;;;6104464;28;81607;-62
2023/01/06 03:26:07;;;;;;;1.98;1.20;;;23.10;44.80;;;;;;6094150;28;82919;-62
2023/01/06 03:29:08;;;;;;;2.15;1.42;;;23.10;44.60;;;;;;6102098;28;83157;-64
2023/01/06 03:32:10;;;;;;;2.60;1.65;;;23.10;44.70;;;;;;6092308;28;80586;-63
2023/01/06 03:35:11;;;;;;;2.85;1.55;;;23.10;44.70;;;;;;6102702;28;80759;-62
2023/01/06 03:38:11;;;;;;;1.83;1.23;;;23.10;44.60;;;;;;6107521;28;83436;-62
2023/01/06 03:41:12;;;;;;;1.63;1.15;;;23.10;44.60;;;;;;6105426;28;80641;-63
2023/01/06 03:44:12;;;;;;;1.70;1.20;;;23.10;44.50;;;;;;6102593;28;83545;-63
2023/01/06 03:47:13;;;;;;;2.47;1.65;;;23.10;44.60;;;;;;6102890;28;83090;-63
2023/01/06 03:50:14;;;;;;;2.75;1.30;;;23.10;44.60;;;;;;6094662;28;82493;-63
2023/01/06 03:53:15;;;;;;;1.50;1.00;;;23.10;44.50;;;;;;6097921;28;80819;-63
2023/01/06 03:56:16;;;;;;;1.30;1.17;;;23.10;44.40;;;;;;6097129;28;82545;-63
2023/01/06 03:59:17;;;;;;;2.15;1.23;;;23.10;44.40;;;;;;6094111;28;82278;-63
2023/01/06 04:02:17;;;;;;;1.80;1.45;;;23.10;44.20;;;;;;6090476;28;83312;-62
2023/01/06 04:05:18;;;;;;;1.58;1.20;;;23.10;44.20;;;;;;6087129;28;81431;-66
2023/01/06 04:08:19;;;;;;;1.95;1.17;;;23.10;44.20;;;;;;6093627;28;85670;-63
2023/01/06 04:14:39;;;;;;;1.10;1.00;;;23.10;44.30;;;;;;6074251;28;81442;-62
2023/01/06 04:17:40;;;;;;;2.00;1.40;;;23.10;44.50;;;;;;6094937;28;82975;-63
2023/01/06 04:20:42;;;;;;;1.92;1.20;;;23.10;44.20;;;;;;6098273;28;80525;-64
2023/01/06 04:23:47;;;;;;;1.92;1.20;;;23.20;44.10;;;;;;6098927;28;83091;-60
2023/01/06 04:26:48;;;;;;;2.67;1.20;;;23.20;43.40;;;;;;6098738;28;83238;-61
2023/01/06 04:29:49;;;;;;;2.03;1.30;;;23.30;43.60;;;;;;6100252;28;83651;-60
2023/01/06 04:32:50;;;;;;;1.80;1.20;;;23.30;43.60;;;;;;6094206;28;81320;-60
2023/01/06 04:35:50;;;;;;;2.20;1.30;;;23.40;43.10;;;;;;6079150;28;83251;-61
2023/01/06 04:38:53;;;;;;;1.83;1.35;;;23.40;43.10;;;;;;6109150;28;83131;-60
2023/01/06 04:41:54;;;;;;;3.63;1.30;;;23.50;43.10;;;;;;6094527;28;81361;-58
2023/01/06 04:44:54;;;;;;;1.50;1.20;;;23.50;43.30;;;;;;6072574;28;80400;-59
2023/01/06 04:47:55;;;;;;;2.05;1.27;;;23.50;43.30;;;;;;6080299;28;80610;-60
2023/01/06 04:50:55;;;;;;;2.35;1.33;;;23.50;43.40;;;;;;6082673;28;85093;-60
2023/01/06 04:53:56;;;;;;;2.78;1.77;;;23.60;43.40;;;;;;6078293;28;81599;-59
2023/01/06 04:56:56;;;;;;;4.68;1.20;;;23.60;43.30;;;;;;6084855;28;85372;-59
2023/01/06 04:59:57;;;;;;;2.83;1.52;;;23.60;43.30;;;;;;6083860;28;80677;-59
2023/01/06 05:02:57;;;;;;;3.85;1.35;;;23.60;43.10;;;;;;6084103;28;88733;-60
2023/01/06 05:05:58;;;;;;;2.08;1.30;;;23.60;43.10;;;;;;6102006;28;85751;-60
2023/01/06 05:08:58;;;;;;;1.50;1.27;;;23.60;42.80;;;;;;6087693;28;80601;-60
2023/01/06 05:11:59;;;;;;;3.92;1.50;;;23.70;43.10;;;;;;6083846;28;81505;-60
2023/01/06 05:15:00;;;;;;;1.25;1.00;;;23.70;42.90;;;;;;6102299;28;81826;-59
2023/01/06 05:18:00;;;;;;;2.75;1.63;;;23.70;43.30;;;;;;6086241;28;84069;-59
2023/01/06 05:21:01;;;;;;;5.35;1.85;;;23.70;42.90;;;;;;6080670;28;80295;-60
2023/01/06 05:24:01;;;;;;;1.92;1.35;;;23.80;42.90;;;;;;6098506;28;82612;-59
2023/01/06 05:27:02;;;;;;;2.70;1.88;;;23.80;43.30;;;;;;6082268;28;80918;-58
2023/01/06 05:30:02;;;;;;;2.22;1.60;;;23.80;43.70;;;;;;6086985;28;80450;-61
2023/01/06 05:33:03;;;;;;;3.45;1.40;;;23.80;42.90;;;;;;6082211;28;80301;-62
2023/01/06 05:36:03;;;;;;;5.15;1.35;;;23.80;43.10;;;;;;6090456;28;80873;-66
2023/01/06 05:39:04;;;;;;;3.47;1.65;;;23.80;43.10;;;;;;6095095;28;83231;-61
2023/01/06 05:42:04;;;;;;;8.60;1.55;;;23.90;42.90;;;;;;6088136;28;81251;-62
2023/01/06 05:45:05;;;;;;;3.95;1.33;;;23.90;43.00;;;;;;6088126;28;80533;-62
2023/01/06 05:48:06;;;;;;;3.55;1.35;;;23.90;43.30;;;;;;6081634;28;80794;-59
2023/01/06 05:51:06;;;;;;;6.18;1.35;;;23.90;43.30;;;;;;6088301;28;81248;-59
2023/01/06 05:54:07;;;;;;;4.07;1.42;;;23.90;43.20;;;;;;6089964;28;80438;-59
2023/01/06 05:57:08;;;;;;;2.83;1.73;;;23.90;43.70;;;;;;6097891;28;80562;-59
2023/01/06 06:00:09;;;;;;;2.63;1.30;;;23.90;44.10;;;;;;6072891;28;86254;-59
2023/01/06 06:03:12;;;;;;;4.68;1.50;;;23.90;44.40;;;;;;6071023;28;85038;-59
2023/01/06 06:06:13;;;;;;;2.90;1.88;;;23.90;45.30;;;;;;6082461;28;80519;-56
2023/01/06 06:09:13;;;;;;;5.15;2.53;;;23.80;46.10;;;;;;6077867;28;82021;-57
2023/01/06 06:12:14;;;;;;;9.48;4.95;;;23.70;46.80;;;;;;6077369;28;83244;-56
2023/01/06 06:15:14;;;;;;;10.18;5.13;;;23.80;47.60;;;;;;6037526;28;85282;-60
2023/01/06 06:18:15;;;;;;;9.35;4.82;;;23.70;47.90;;;;;;6072251;28;85457;-58
2023/01/06 06:21:15;;;;;;;10.00;4.30;;;23.70;48.60;;;;;;6069647;28;83708;-56
2023/01/06 06:24:16;;;;;;;8.63;3.97;;;23.70;49.10;;;;;;6077720;28;85700;-65
2023/01/06 06:27:16;;;;;;;11.20;4.90;;;23.70;49.60;;;;;;6081388;28;82334;-65
2023/01/06 06:30:17;;;;;;;13.45;5.30;;;23.70;50.10;;;;;;6077832;28;80812;-67
2023/01/06 06:33:18;;;;;;;10.45;6.35;;;23.60;50.40;;;;;;6062505;28;87900;-65
2023/01/06 06:36:18;;;;;;;10.93;5.57;;;23.60;49.90;;;;;;6085090;28;80616;-65
2023/01/06 06:39:19;;;;;;;10.27;5.18;;;23.70;50.00;;;;;;6096719;28;83055;-67
2023/01/06 06:42:19;;;;;;;7.15;4.60;;;23.70;49.80;;;;;;6088344;28;81682;-67
2023/01/06 06:45:20;;;;;;;7.45;4.57;;;23.70;49.40;;;;;;6082203;28;82633;-66
2023/01/06 06:48:20;;;;;;;7.63;4.63;;;23.70;49.20;;;;;;6083642;28;85316;-67
2023/01/06 06:51:21;;;;;;;7.95;4.22;;;23.60;48.90;;;;;;6092901;28;80610;-69
2023/01/06 06:54:21;;;;;;;9.63;4.20;;;23.60;48.70;;;;;;6085044;28;85681;-65
2023/01/06 06:57:22;;;;;;;8.27;5.32;;;23.60;48.80;;;;;;6084814;28;83368;-64
2023/01/06 07:00:23;;;;;;;9.45;5.60;;;23.60;48.90;;;;;;6090716;28;81484;-63
2023/01/06 07:03:24;;;;;;;10.98;5.68;;;23.60;48.70;;;;;;6074380;28;80614;-68
2023/01/06 07:06:24;;;;;;;10.65;5.88;;;23.60;48.40;;;;;;6087172;28;81773;-66
2023/01/06 07:09:25;;;;;;;6.50;4.07;;;23.50;48.50;;;;;;6075865;28;82950;-71
2023/01/06 07:12:25;;;;;;;8.98;4.32;;;23.50;50.20;;;;;;6072750;28;80614;-62
2023/01/06 07:15:26;;;;;;;7.35;3.83;;;23.50;50.80;;;;;;6075346;28;81241;-63
2023/01/06 07:18:26;;;;;;;6.88;3.17;;;23.60;51.10;;;;;;6055123;28;85616;-66
2023/01/06 07:21:27;;;;;;;5.45;3.28;;;23.50;51.20;;;;;;6075647;28;81797;-66
2023/01/06 07:24:28;;;;;;;4.72;2.90;;;23.50;51.60;;;;;;6064449;28;80562;-63
2023/01/06 07:27:28;;;;;;;4.68;3.05;;;23.50;51.80;;;;;;6063549;28;81068;-62
2023/01/06 07:30:29;;;;;;;3.58;2.03;;;23.50;52.40;;;;;;6072848;28;80785;-64
2023/01/06 07:33:29;;;;;;;6.72;2.45;;;23.50;52.20;;;;;;6098460;28;84842;-66
2023/01/06 07:36:30;;;;;;;4.28;2.50;;;23.50;52.50;;;;;;6076929;28;86767;-72
2023/01/06 07:39:30;;;;;;;3.47;2.10;;;23.40;52.20;;;;;;6083776;28;80894;-69
2023/01/06 07:42:31;;;;;;;3.25;1.88;;;23.40;52.60;;;;;;6091157;28;80846;-70
2023/01/06 07:45:31;;;;;;;4.32;1.95;;;23.40;52.70;;;;;;6083652;28;81547;-74
2023/01/06 07:48:32;;;;;;;3.88;2.00;;;23.30;52.50;;;;;;6093550;28;84584;-77
2023/01/06 07:51:32;;;;;;;4.93;1.85;;;23.40;53.10;;;;;;6096389;28;81528;-71
2023/01/06 07:54:33;;;;;;;4.70;2.10;;;23.30;53.10;;;;;;6076670;28;81959;-70
2023/01/06 07:57:33;;;;;;;5.65;2.00;;;23.30;53.30;;;;;;6063908;28;81015;-59
2023/01/06 08:00:34;;;;;;;3.60;1.85;;;23.40;53.20;;;;;;6072873;28;80540;-62
2023/01/06 08:03:34;;;;;;;2.70;1.60;;;23.30;53.40;;;;;;6082164;28;81689;-59
2023/01/06 08:06:35;;;;;;;3.30;1.75;;;23.40;53.50;;;;;;6079815;28;85129;-58
2023/01/06 08:09:36;;;;;;;5.05;2.00;;;23.40;53.40;;;;;;6085013;28;81017;-60
2023/01/06 08:12:36;;;;;;;3.95;1.40;;;23.40;53.40;;;;;;6086046;28;80650;-59
2023/01/06 08:15:37;;;;;;;3.30;1.77;;;23.50;53.90;;;;;;6096408;28;82362;-68
2023/01/06 08:18:37;;;;;;;5.22;1.55;;;23.50;53.40;;;;;;6098572;28;80541;-65
2023/01/06 08:21:38;;;;;;;2.47;1.42;;;23.60;53.00;;;;;;6096655;28;81469;-64
2023/01/06 08:24:38;;;;;;;3.88;1.90;;;23.70;52.80;;;;;;6082567;28;80506;-65
2023/01/06 08:27:39;;;;;;;4.97;1.95;;;23.70;53.50;;;;;;6089125;28;80619;-64
2023/01/06 08:30:40;;;;;;;1.73;1.30;;;23.70;52.70;;;;;;6097235;28;81239;-65
2023/01/06 08:33:41;;;;;;;6.15;1.85;;;23.80;53.60;;;;;;6077161;28;80485;-62
2023/01/06 08:36:42;;;;;;;1.63;1.00;;;23.80;52.80;;;;;;6099620;28;81154;-65
2023/01/06 08:39:42;;;;;;;1.42;1.20;;;23.90;52.70;;;;;;6085193;28;82980;-65
2023/01/06 08:42:43;;;;;;;3.88;1.60;;;24.00;53.20;;;;;;6080752;28;80487;-61
2023/01/06 08:45:43;;;;;;;5.30;1.52;;;24.10;53.30;;;;;;6086792;28;82703;-62
2023/01/06 08:48:44;;;;;;;2.42;1.70;;;24.20;53.60;;;;;;6089157;28;81003;-64
2023/01/06 08:51:44;;;;;;;3.72;1.88;;;24.20;52.80;;;;;;6102686;28;86103;-61
2023/01/06 08:54:45;;;;;;;2.97;1.65;;;24.20;51.90;;;;;;6105895;28;80943;-63
2023/01/06 08:57:45;;;;;;;3.70;1.38;;;24.30;52.00;;;;;;6082887;28;80845;-63
2023/01/06 09:00:46;;;;;;;1.90;1.33;;;24.30;52.70;;;;;;6088799;28;80708;-64
2023/01/06 09:03:46;;;;;;;2.35;1.27;;;24.40;52.50;;;;;;6091590;28;80871;-65
2023/01/06 09:06:47;;;;;;;1.70;1.40;;;24.60;51.50;;;;;;6106044;28;80881;-65
2023/01/06 09:09:47;;;;;;;2.90;1.30;;;24.60;49.80;;;;;;6096592;28;80704;-64
2023/01/06 09:12:48;;;;;;;2.45;1.50;;;24.60;48.30;;;;;;6082022;28;80511;-66
2023/01/06 09:15:51;;;;;;;4.00;2.40;;;24.70;47.10;;;;;;6090695;28;82978;-68
2023/01/06 09:18:52;;;;;;;4.10;2.90;;;24.20;42.40;;;;;;6090876;28;81926;-63
2023/01/06 09:21:52;;;;;;;4.95;2.60;;;23.10;39.50;;;;;;6085488;28;80494;-65
2023/01/06 09:24:53;;;;;;;3.92;2.10;;;23.20;39.00;;;;;;6075441;28;83472;-70
2023/01/06 09:27:53;;;;;;;4.57;2.17;;;22.80;37.70;;;;;;6087430;28;83692;-62
2023/01/06 09:30:54;;;;;;;3.08;2.10;;;22.40;38.40;;;;;;6093206;28;80871;-66
2023/01/06 09:33:54;;;;;;;2.25;1.70;;;22.40;41.40;;;;;;6075697;28;83001;-65
2023/01/06 09:36:55;;;;;;;4.32;2.42;;;22.70;41.30;;;;;;6088832;28;80254;-64
2023/01/06 09:39:55;;;;;;;6.63;2.30;;;23.00;42.40;;;;;;6090149;28;81492;-65
2023/01/06 09:42:56;;;;;;;3.88;2.30;;;23.20;44.20;;;;;;6090578;28;82336;-69
2023/01/06 09:45:56;;;;;;;4.18;1.92;;;23.30;44.30;;;;;;6085437;28;81383;-63
2023/01/06 09:48:57;;;;;;;7.22;1.85;;;23.40;44.40;;;;;;6087310;28;83484;-62
2023/01/06 09:51:58;;;;;;;2.63;1.90;;;23.40;45.00;;;;;;6089221;28;80451;-71
2023/01/06 09:54:58;;;;;;;2.42;1.50;;;23.50;45.60;;;;;;6091738;28;80335;-68
2023/01/06 09:57:59;;;;;;;5.78;1.75;;;23.50;45.80;;;;;;6088895;28;82528;-68
2023/01/06 10:00:59;;;;;;;1.67;1.58;;;23.60;46.70;;;;;;6088614;28;80789;-69
2023/01/06 10:04:00;;;;;;;2.72;1.73;;;23.60;46.50;;;;;;6104711;28;81796;-66
2023/01/06 10:07:00;;;;;;;2.95;1.80;;;23.60;46.90;;;;;;6104256;28;80112;-66
2023/01/06 10:10:01;;;;;;;5.07;1.58;;;23.70;46.80;;;;;;6096037;28;83985;-64
2023/01/06 10:13:01;;;;;;;2.08;1.65;;;23.70;47.40;;;;;;6088351;28;81632;-63
2023/01/06 10:16:02;;;;;;;1.70;1.40;;;23.70;47.30;;;;;;6102215;28;83184;-63
2023/01/06 10:19:02;;;;;;;4.68;1.70;;;23.70;47.20;;;;;;6105782;28;82353;-64
2023/01/06 10:22:03;;;;;;;3.08;2.10;;;23.70;47.10;;;;;;6103875;28;80711;-63
2023/01/06 10:25:04;;;;;;;2.75;1.75;;;23.70;46.70;;;;;;6105190;28;81683;-65
2023/01/06 10:28:04;;;;;;;2.13;1.60;;;23.80;46.50;;;;;;6098057;28;81737;-65
2023/01/06 10:31:05;;;;;;;3.03;1.77;;;23.80;46.60;;;;;;6072989;28;81269;-66
2023/01/06 10:34:05;;;;;;;1.98;1.50;;;23.80;46.60;;;;;;6072907;28;82448;-65
2023/01/06 10:37:06;;;;;;;4.20;1.70;;;23.80;46.60;;;;;;6081687;28;81189;-64
2023/01/06 10:40:06;;;;;;;2.67;1.73;;;23.80;46.90;;;;;;6063871;28;81187;-68
2023/01/06 10:43:07;;;;;;;2.97;1.73;;;23.80;47.10;;;;;;6089929;28;80522;-74
2023/01/06 10:46:08;;;;;;;5.28;1.80;;;23.80;47.30;;;;;;6091704;28;81447;-65
2023/01/06 10:49:09;;;;;;;4.28;1.98;;;23.80;47.70;;;;;;6085135;28;80918;-66
2023/01/06 10:52:09;;;;;;;5.70;1.92;;;23.80;47.90;;;;;;6083920;28;82581;-64
2023/01/06 10:55:10;;;;;;;4.95;2.10;;;23.80;48.10;;;;;;6083938;28;83233;-67
2023/01/06 10:58:10;;;;;;;3.58;1.60;;;23.80;48.50;;;;;;6075785;28;80774;-73
2023/01/06 11:01:11;;;;;;;4.97;2.67;;;23.80;48.10;;;;;;6080304;28;80855;-61
2023/01/06 11:04:12;;;;;;;4.53;2.22;;;23.90;48.40;;;;;;6072415;28;81372;-63
2023/01/06 11:07:12;;;;;;;3.67;2.05;;;23.90;48.50;;;;;;6073460;28;80630;-61
2023/01/06 11:10:13;;;;;;;4.25;2.03;;;23.90;49.00;;;;;;6088559;28;81125;-61
2023/01/06 11:13:13;;;;;;;3.83;2.17;;;24.00;48.80;;;;;;6084467;28;80777;-62
2023/01/06 11:16:14;;;;;;;4.30;1.75;;;24.00;49.70;;;;;;6088757;28;81781;-61
2023/01/06 11:19:15;;;;;;;5.63;2.17;;;24.00;49.50;;;;;;6086051;28;81067;-60
2023/01/06 11:22:15;;;;;;;3.70;2.00;;;24.00;49.50;;;;;;6081011;28;81605;-58
2023/01/06 11:25:16;;;;;;;3.25;1.88;;;24.00;49.60;;;;;;6088593;28;80509;-58
2023/01/06 11:28:16;;;;;;;3.90;2.03;;;23.90;49.80;;;;;;6077342;28;85306;-57
2023/01/06 11:31:18;;;;;;;4.32;2.25;;;24.00;50.10;;;;;;6088550;28;80549;-58
2023/01/06 11:34:18;;;;;;;8.52;2.95;;;24.00;50.80;;;;;;6075210;28;80514;-60
2023/01/06 11:37:19;;;;;;;6.13;2.40;;;23.90;51.30;;;;;;6073679;28;81709;-59
2023/01/06 11:40:19;;;;;;;6.43;2.40;;;24.00;51.50;;;;;;6074467;28;82008;-58
2023/01/06 11:43:20;;;;;;;4.50;1.83;;;23.90;52.00;;;;;;6087366;28;80825;-59
2023/01/06 11:46:21;;;;;;;5.88;2.33;;;23.90;52.10;;;;;;6086515;28;84830;-56
2023/01/06 11:49:22;;;;;;;6.38;2.30;;;23.90;51.90;;;;;;6098312;28;80981;-59
2023/01/06 11:52:23;;;;;;;3.38;1.95;;;23.90;51.80;;;;;;6080282;28;80565;-60
2023/01/06 11:55:26;;;;;;;4.75;2.10;;;23.90;51.90;;;;;;6065296;28;80987;-66
2023/01/06 11:58:26;;;;;;;4.38;2.08;;;23.90;51.60;;;;;;6067732;28;86557;-70
2023/01/06 12:01:27;;;;;;;4.25;2.10;;;23.80;52.70;;;;;;6061226;28;82965;-68
2023/01/06 12:04:28;;;;;;;4.10;2.00;;;23.80;51.80;;;;;;6072914;28;80980;-67
2023/01/06 12:07:28;;;;;;;5.72;2.33;;;23.80;52.00;;;;;;6044665;28;85571;-71
2023/01/06 12:10:29;;;;;;;4.40;2.35;;;23.80;51.10;;;;;;6076733;28;84392;-70
2023/01/06 12:13:29;;;;;;;3.80;1.88;;;23.80;51.20;;;;;;6081983;28;85566;-62
2023/01/06 12:16:30;;;;;;;3.90;2.17;;;23.90;50.90;;;;;;6082410;28;80371;-63
2023/01/06 12:19:31;;;;;;;6.40;2.35;;;23.90;50.70;;;;;;6074977;28;80998;-64
2023/01/06 12:22:31;;;;;;;3.75;2.03;;;24.00;49.90;;;;;;6092528;28;83259;-63
2023/01/06 12:25:32;;;;;;;8.35;2.65;;;24.00;49.60;;;;;;6089961;28;82156;-62
2023/01/06 12:28:33;;;;;;;4.80;2.22;;;24.00;49.10;;;;;;6092214;28;81799;-59
2023/01/06 12:31:33;;;;;;;4.63;2.10;;;24.10;48.80;;;;;;6095069;28;80582;-62
2023/01/06 12:34:35;;;;;;;13.88;2.20;;;24.10;49.30;;;;;;6088833;28;80688;-62
2023/01/06 12:37:36;;;;;;;4.05;2.33;;;24.20;48.90;;;;;;6083188;28;81331;-62
2023/01/06 12:40:37;;;;;;;3.92;2.20;;;24.40;48.50;;;;;;6085384;28;81203;-62
2023/01/06 12:43:37;;;;;;;7.35;2.17;;;24.50;48.20;;;;;;6070741;28;81294;-62
2023/01/06 12:46:38;;;;;;;3.53;2.40;;;24.60;46.80;;;;;;6086953;28;80628;-62
2023/01/06 12:49:38;;;;;;;3.63;1.92;;;24.60;45.50;;;;;;6084548;28;80484;-62
2023/01/06 12:52:39;;;;;;;3.63;2.22;;;24.60;44.30;;;;;;6102190;28;81027;-62
2023/01/06 12:55:39;;;;;;;2.47;2.10;;;24.70;43.80;;;;;;6101346;28;81401;-62
2023/01/06 12:58:40;;;;;;;6.57;2.10;;;24.70;43.10;;;;;;6095886;28;80953;-62
2023/01/06 13:01:40;;;;;;;4.28;2.20;;;24.80;42.60;;;;;;6097817;28;80874;-63
2023/01/06 13:04:41;;;;;;;3.35;2.40;;;24.70;41.60;;;;;;6103985;28;80492;-62
2023/01/06 13:07:41;;;;;;;3.00;2.17;;;24.70;42.10;;;;;;6102938;28;81434;-61
2023/01/06 13:10:42;;;;;;;3.55;2.30;;;24.60;42.60;;;;;;6104001;28;81844;-61
2023/01/06 13:13:42;;;;;;;4.63;2.40;;;24.50;42.60;;;;;;6103355;28;80591;-63
2023/01/06 13:16:43;;;;;;;3.70;2.30;;;24.40;43.20;;;;;;6085912;28;80839;-62
2023/01/06 13:19:44;;;;;;;3.47;2.47;;;24.30;42.90;;;;;;6099260;28;83086;-64
2023/01/06 13:22:44;;;;;;;4.07;2.38;;;24.30;43.00;;;;;;6104162;28;80467;-63
2023/01/06 13:25:45;;;;;;;4.40;2.55;;;24.40;43.40;;;;;;6086488;28;84888;-62
2023/01/06 13:28:45;;;;;;;4.20;2.30;;;24.40;43.60;;;;;;6094669;28;80574;-62
2023/01/06 13:31:46;;;;;;;3.88;2.17;;;24.40;43.70;;;;;;6104280;28;83346;-62
2023/01/06 13:34:46;;;;;;;4.03;2.80;;;24.40;43.70;;;;;;6103426;28;83510;-63
2023/01/06 13:37:47;;;;;;;9.88;3.03;;;24.40;43.60;;;;;;6088034;28;80740;-63
2023/01/06 13:40:50;;;;;;;5.03;2.75;;;24.30;43.50;;;;;;6080397;28;81469;-63
2023/01/06 13:43:50;;;;;;;5.22;2.58;;;24.20;43.60;;;;;;6085081;28;80650;-65
2023/01/06 13:46:51;;;;;;;9.18;3.25;;;24.20;44.10;;;;;;6092320;28;81999;-64
2023/01/06 13:49:51;;;;;;;4.22;2.70;;;24.10;44.50;;;;;;6067338;28;82859;-64
2023/01/06 13:52:52;;;;;;;4.95;2.60;;;24.10;44.60;;;;;;6088576;28;84098;-67
2023/01/06 13:55:52;;;;;;;12.07;3.13;;;24.00;44.80;;;;;;6074611;28;82004;-65
2023/01/06 13:58:53;;;;;;;11.95;3.47;;;24.00;45.60;;;;;;6078498;28;81421;-62
2023/01/06 14:01:58;;;;;;;4.45;2.67;;;24.00;45.70;;;;;;6072045;28;81663;-61
2023/01/06 14:04:58;;;;;;;7.70;3.83;;;24.00;46.10;;;;;;6084906;28;81838;-64
2023/01/06 14:07:59;;;;;;;6.85;2.80;;;24.00;45.90;;;;;;6085997;28;81260;-60
2023/01/06 14:11:01;;;;;;;6.78;3.15;;;23.90;46.50;;;;;;6086800;28;82826;-62
2023/01/06 14:14:01;;;;;;;5.20;3.00;;;23.90;47.50;;;;;;6090888;28;83585;-63
2023/01/06 14:17:02;;;;;;;8.27;3.13;;;23.90;48.00;;;;;;6087817;28;80842;-61
2023/01/06 14:20:02;;;;;;;7.90;3.75;;;23.90;48.60;;;;;;6100915;28;80704;-58
2023/01/06 14:23:03;;;;;;;20.80;5.95;;;23.80;49.40;;;;;;6093426;28;81827;-64
2023/01/06 14:26:03;;;;;;;12.48;5.20;;;23.80;49.30;;;;;;6088340;28;82406;-68
2023/01/06 14:29:04;;;;;;;11.43;5.90;;;23.80;49.70;;;;;;6086518;28;81197;-68
2023/01/06 14:32:04;;;;;;;10.02;5.03;;;23.80;50.40;;;;;;6090902;28;81702;-67
2023/01/06 14:35:05;;;;;;;10.25;4.70;;;23.80;50.50;;;;;;6089172;28;81720;-66
2023/01/06 14:38:06;;;;;;;16.38;6.43;;;23.70;50.30;;;;;;6085617;28;81145;-69
2023/01/06 14:41:06;;;;;;;12.10;5.97;;;23.70;50.90;;;;;;6099257;28;81422;-59
2023/01/06 14:44:07;;;;;;;11.43;5.70;;;23.70;51.10;;;;;;6095456;28;81646;-61
2023/01/06 14:47:07;;;;;;;11.23;5.40;;;23.70;51.20;;;;;;6085555;28;83227;-61
2023/01/06 14:50:08;;;;;;;10.07;5.55;;;23.70;51.40;;;;;;6097542;28;81474;-61
2023/01/06 14:53:08;;;;;;;12.13;6.10;;;23.70;51.70;;;;;;6089377;28;81296;-60
2023/01/06 14:56:09;;;;;;;8.13;5.60;;;23.70;51.80;;;;;;6101399;28;82305;-60
2023/01/06 14:59:10;;;;;;;10.20;5.47;;;23.70;51.60;;;;;;6094727;28;80414;-65
2023/01/06 15:02:10;;;;;;;10.73;5.93;;;23.70;52.00;;;;;;6089497;28;81866;-66
2023/01/06 15:05:11;;;;;;;11.35;6.32;;;23.70;51.70;;;;;;6083930;28;82199;-66
2023/01/06 15:08:11;;;;;;;10.10;5.70;;;23.70;51.60;;;;;;6082837;28;83738;-66
2023/01/06 15:11:12;;;;;;;8.85;5.70;;;23.70;51.80;;;;;;6080211;28;80969;-67
2023/01/06 15:14:12;;;;;;;12.27;7.40;;;23.70;51.60;;;;;;6089453;28;80637;-69
2023/01/06 15:17:13;;;;;;;9.05;5.65;;;23.70;51.60;;;;;;6088174;28;82410;-57
2023/01/06 15:20:13;;;;;;;10.32;6.05;;;23.70;51.80;;;;;;6084865;28;80795;-53
2023/01/06 15:23:14;;;;;;;10.52;6.50;;;23.70;51.80;;;;;;6082918;28;80687;-52
2023/01/06 15:26:14;;;;;;;11.32;6.38;;;23.70;51.70;;;;;;6078043;28;83273;-58
2023/01/06 15:29:15;;;;;;;10.43;6.30;;;23.70;51.70;;;;;;6089964;28;80857;-59
2023/01/06 15:32:15;;;;;;;8.75;6.05;;;23.70;51.50;;;;;;6069561;28;84342;-60
2023/01/06 15:35:16;;;;;;;15.35;6.35;;;23.70;51.30;;;;;;6098771;28;80631;-65
2023/01/06 15:38:16;;;;;;;10.60;6.70;;;23.70;51.60;;;;;;6086122;28;81725;-63
2023/01/06 15:41:32;;;;;;;17.10;7.30;;;23.70;51.40;;;;;;6078144;28;80779;-62